sensor_id;sensor_type;location;lat;lon;timestamp;P1;durP1;ratioP1;P2;durP2;ratioP2
5149;SDS011;2593;52.466;13.436;2022-07-23T00:01:29;33.03;;;18.00;;
5149;SDS011;2593;52.466;13.436;2022-07-23T00:03:55;16.20;;;11.30;;
5149;SDS011;2593;52.466;13.436;2022-07-23T00:06:21;25.87;;;13.10;;
5149;SDS011;2593;52.466;13.436;2022-07-23T00:08:47;21.23;;;12.40;;
5149;SDS011;2593;52.466;13.436;2022-07-23T00:11:13;20.93;;;13.27;;
5149;SDS011;2593;52.466;13.436;2022-07-23T00:13:39;37.53;;;22.30;;
5149;SDS011;2593;52.466;13.436;2022-07-23T00:16:05;24.23;;;12.03;;
5149;SDS011;2593;52.466;13.436;2022-07-23T00:18:31;16.63;;;10.67;;
5149;SDS011;2593;52.466;13.436;2022-07-23T00:20:56;20.57;;;13.93;;
5149;SDS011;2593;52.466;13.436;2022-07-23T00:23:22;10.77;;;7.30;;
5149;SDS011;2593;52.466;13.436;2022-07-23T00:25:49;18.57;;;9.07;;
5149;SDS011;2593;52.466;13.436;2022-07-23T00:28:16;12.00;;;8.80;;
5149;SDS011;2593;52.466;13.436;2022-07-23T00:30:43;19.97;;;13.10;;
5149;SDS011;2593;52.466;13.436;2022-07-23T00:33:08;24.27;;;14.50;;
5149;SDS011;2593;52.466;13.436;2022-07-23T00:35:35;23.40;;;14.70;;
5149;SDS011;2593;52.466;13.436;2022-07-23T00:38:05;21.23;;;11.07;;
5149;SDS011;2593;52.466;13.436;2022-07-23T00:40:32;14.23;;;9.17;;
5149;SDS011;2593;52.466;13.436;2022-07-23T00:42:57;21.73;;;13.47;;
5149;SDS011;2593;52.466;13.436;2022-07-23T00:45:24;19.27;;;12.67;;
5149;SDS011;2593;52.466;13.436;2022-07-23T00:47:50;11.23;;;8.07;;
5149;SDS011;2593;52.466;13.436;2022-07-23T00:50:16;9.30;;;6.57;;
5149;SDS011;2593;52.466;13.436;2022-07-23T00:52:41;21.40;;;14.13;;
5149;SDS011;2593;52.466;13.436;2022-07-23T00:55:08;12.40;;;7.97;;
5149;SDS011;2593;52.466;13.436;2022-07-23T00:57:34;18.00;;;9.60;;
5149;SDS011;2593;52.466;13.436;2022-07-23T01:00:01;15.77;;;9.77;;
5149;SDS011;2593;52.466;13.436;2022-07-23T01:02:27;15.10;;;10.33;;
5149;SDS011;2593;52.466;13.436;2022-07-23T01:04:53;7.93;;;6.13;;
5149;SDS011;2593;52.466;13.436;2022-07-23T01:07:19;18.50;;;10.70;;
5149;SDS011;2593;52.466;13.436;2022-07-23T01:09:45;14.40;;;8.90;;
5149;SDS011;2593;52.466;13.436;2022-07-23T01:12:11;19.37;;;12.57;;
5149;SDS011;2593;52.466;13.436;2022-07-23T01:14:37;23.70;;;14.27;;
5149;SDS011;2593;52.466;13.436;2022-07-23T01:17:03;20.40;;;10.83;;
5149;SDS011;2593;52.466;13.436;2022-07-23T01:19:28;19.20;;;11.60;;
5149;SDS011;2593;52.466;13.436;2022-07-23T01:21:54;30.93;;;15.90;;
5149;SDS011;2593;52.466;13.436;2022-07-23T01:24:22;17.83;;;11.27;;
5149;SDS011;2593;52.466;13.436;2022-07-23T01:26:48;28.60;;;19.00;;
5149;SDS011;2593;52.466;13.436;2022-07-23T01:29:15;24.00;;;13.03;;
5149;SDS011;2593;52.466;13.436;2022-07-23T01:31:41;12.40;;;9.00;;
5149;SDS011;2593;52.466;13.436;2022-07-23T01:34:08;11.63;;;8.10;;
5149;SDS011;2593;52.466;13.436;2022-07-23T01:36:34;8.27;;;6.40;;
5149;SDS011;2593;52.466;13.436;2022-07-23T01:39:00;10.70;;;7.00;;
5149;SDS011;2593;52.466;13.436;2022-07-23T01:41:26;10.20;;;6.57;;
5149;SDS011;2593;52.466;13.436;2022-07-23T01:43:51;15.43;;;7.03;;
5149;SDS011;2593;52.466;13.436;2022-07-23T01:46:17;10.70;;;7.10;;
5149;SDS011;2593;52.466;13.436;2022-07-23T01:48:42;12.20;;;7.10;;
5149;SDS011;2593;52.466;13.436;2022-07-23T01:51:08;13.50;;;6.77;;
5149;SDS011;2593;52.466;13.436;2022-07-23T01:53:34;36.63;;;12.67;;
5149;SDS011;2593;52.466;13.436;2022-07-23T01:56:00;15.10;;;7.50;;
5149;SDS011;2593;52.466;13.436;2022-07-23T01:58:26;12.77;;;7.83;;
5149;SDS011;2593;52.466;13.436;2022-07-23T02:00:52;9.23;;;6.77;;
5149;SDS011;2593;52.466;13.436;2022-07-23T02:03:19;15.03;;;10.07;;
5149;SDS011;2593;52.466;13.436;2022-07-23T02:05:44;8.73;;;6.70;;
5149;SDS011;2593;52.466;13.436;2022-07-23T02:08:10;10.30;;;6.30;;
5149;SDS011;2593;52.466;13.436;2022-07-23T02:10:36;11.70;;;7.30;;
5149;SDS011;2593;52.466;13.436;2022-07-23T02:13:02;6.67;;;5.93;;
5149;SDS011;2593;52.466;13.436;2022-07-23T02:15:27;10.10;;;6.33;;
5149;SDS011;2593;52.466;13.436;2022-07-23T02:17:53;9.97;;;6.00;;
5149;SDS011;2593;52.466;13.436;2022-07-23T02:20:19;9.63;;;6.60;;
5149;SDS011;2593;52.466;13.436;2022-07-23T02:22:45;13.07;;;6.13;;
5149;SDS011;2593;52.466;13.436;2022-07-23T02:25:11;13.50;;;7.30;;
5149;SDS011;2593;52.466;13.436;2022-07-23T02:27:36;11.47;;;7.13;;
5149;SDS011;2593;52.466;13.436;2022-07-23T02:30:02;9.13;;;6.87;;
5149;SDS011;2593;52.466;13.436;2022-07-23T02:32:29;18.57;;;6.77;;
5149;SDS011;2593;52.466;13.436;2022-07-23T02:34:55;10.47;;;6.80;;
5149;SDS011;2593;52.466;13.436;2022-07-23T02:37:20;8.83;;;7.07;;
5149;SDS011;2593;52.466;13.436;2022-07-23T02:39:46;9.03;;;6.70;;
5149;SDS011;2593;52.466;13.436;2022-07-23T02:42:13;13.07;;;7.50;;
5149;SDS011;2593;52.466;13.436;2022-07-23T02:44:39;16.70;;;7.70;;
5149;SDS011;2593;52.466;13.436;2022-07-23T02:47:05;11.70;;;6.00;;
5149;SDS011;2593;52.466;13.436;2022-07-23T02:49:31;14.47;;;6.67;;
5149;SDS011;2593;52.466;13.436;2022-07-23T02:51:56;13.67;;;6.37;;
5149;SDS011;2593;52.466;13.436;2022-07-23T02:54:22;9.30;;;6.77;;
5149;SDS011;2593;52.466;13.436;2022-07-23T02:56:48;12.10;;;6.33;;
5149;SDS011;2593;52.466;13.436;2022-07-23T02:59:15;9.37;;;6.53;;
5149;SDS011;2593;52.466;13.436;2022-07-23T03:01:41;14.03;;;6.40;;
5149;SDS011;2593;52.466;13.436;2022-07-23T03:04:06;6.67;;;5.70;;
5149;SDS011;2593;52.466;13.436;2022-07-23T03:06:32;11.30;;;6.83;;
5149;SDS011;2593;52.466;13.436;2022-07-23T03:08:58;13.70;;;6.00;;
5149;SDS011;2593;52.466;13.436;2022-07-23T03:11:23;12.83;;;6.23;;
5149;SDS011;2593;52.466;13.436;2022-07-23T03:13:49;8.67;;;6.70;;
5149;SDS011;2593;52.466;13.436;2022-07-23T03:16:14;12.77;;;6.30;;
5149;SDS011;2593;52.466;13.436;2022-07-23T03:18:40;8.13;;;6.10;;
5149;SDS011;2593;52.466;13.436;2022-07-23T03:21:06;8.40;;;6.10;;
5149;SDS011;2593;52.466;13.436;2022-07-23T03:23:31;8.50;;;5.93;;
5149;SDS011;2593;52.466;13.436;2022-07-23T03:25:57;11.23;;;6.03;;
5149;SDS011;2593;52.466;13.436;2022-07-23T03:28:23;8.70;;;6.13;;
5149;SDS011;2593;52.466;13.436;2022-07-23T03:30:48;10.73;;;5.60;;
5149;SDS011;2593;52.466;13.436;2022-07-23T03:33:14;11.33;;;5.53;;
5149;SDS011;2593;52.466;13.436;2022-07-23T03:35:41;8.90;;;6.13;;
5149;SDS011;2593;52.466;13.436;2022-07-23T03:38:08;8.33;;;5.23;;
5149;SDS011;2593;52.466;13.436;2022-07-23T03:40:33;10.87;;;6.13;;
5149;SDS011;2593;52.466;13.436;2022-07-23T03:42:59;8.80;;;6.63;;
5149;SDS011;2593;52.466;13.436;2022-07-23T03:45:25;9.83;;;6.60;;
5149;SDS011;2593;52.466;13.436;2022-07-23T03:47:50;23.53;;;5.67;;
5149;SDS011;2593;52.466;13.436;2022-07-23T03:50:16;9.77;;;5.87;;
5149;SDS011;2593;52.466;13.436;2022-07-23T03:52:41;9.70;;;6.30;;
5149;SDS011;2593;52.466;13.436;2022-07-23T03:55:07;10.10;;;5.80;;
5149;SDS011;2593;52.466;13.436;2022-07-23T03:57:33;11.97;;;5.77;;
5149;SDS011;2593;52.466;13.436;2022-07-23T03:59:58;14.47;;;6.80;;
5149;SDS011;2593;52.466;13.436;2022-07-23T04:02:24;8.07;;;5.07;;
5149;SDS011;2593;52.466;13.436;2022-07-23T04:04:50;8.10;;;5.20;;
5149;SDS011;2593;52.466;13.436;2022-07-23T04:07:16;10.63;;;4.83;;
5149;SDS011;2593;52.466;13.436;2022-07-23T04:09:42;12.10;;;4.70;;
5149;SDS011;2593;52.466;13.436;2022-07-23T04:12:09;11.00;;;4.80;;
5149;SDS011;2593;52.466;13.436;2022-07-23T04:14:34;3.87;;;3.43;;
5149;SDS011;2593;52.466;13.436;2022-07-23T04:17:00;6.90;;;4.63;;
5149;SDS011;2593;52.466;13.436;2022-07-23T04:19:26;7.20;;;4.20;;
5149;SDS011;2593;52.466;13.436;2022-07-23T04:21:52;7.80;;;5.10;;
5149;SDS011;2593;52.466;13.436;2022-07-23T04:24:18;8.33;;;4.17;;
5149;SDS011;2593;52.466;13.436;2022-07-23T04:26:44;9.27;;;4.07;;
5149;SDS011;2593;52.466;13.436;2022-07-23T04:29:10;9.13;;;3.83;;
5149;SDS011;2593;52.466;13.436;2022-07-23T04:31:35;11.80;;;3.80;;
5149;SDS011;2593;52.466;13.436;2022-07-23T04:34:01;4.13;;;3.00;;
5149;SDS011;2593;52.466;13.436;2022-07-23T04:36:27;8.90;;;3.40;;
5149;SDS011;2593;52.466;13.436;2022-07-23T04:38:52;12.37;;;3.50;;
5149;SDS011;2593;52.466;13.436;2022-07-23T04:41:19;22.60;;;4.80;;
5149;SDS011;2593;52.466;13.436;2022-07-23T04:43:45;17.40;;;4.10;;
5149;SDS011;2593;52.466;13.436;2022-07-23T04:46:10;11.33;;;3.47;;
5149;SDS011;2593;52.466;13.436;2022-07-23T04:48:36;15.43;;;4.50;;
5149;SDS011;2593;52.466;13.436;2022-07-23T04:51:02;9.93;;;3.33;;
5149;SDS011;2593;52.466;13.436;2022-07-23T04:53:28;9.17;;;4.13;;
5149;SDS011;2593;52.466;13.436;2022-07-23T04:55:53;13.50;;;5.27;;
5149;SDS011;2593;52.466;13.436;2022-07-23T04:58:19;21.60;;;5.03;;
5149;SDS011;2593;52.466;13.436;2022-07-23T05:00:45;9.07;;;4.57;;
5149;SDS011;2593;52.466;13.436;2022-07-23T05:03:11;9.37;;;4.67;;
5149;SDS011;2593;52.466;13.436;2022-07-23T05:05:36;5.17;;;4.27;;
5149;SDS011;2593;52.466;13.436;2022-07-23T05:08:02;10.40;;;4.93;;
5149;SDS011;2593;52.466;13.436;2022-07-23T05:10:28;9.60;;;4.80;;
5149;SDS011;2593;52.466;13.436;2022-07-23T05:12:53;8.20;;;4.87;;
5149;SDS011;2593;52.466;13.436;2022-07-23T05:15:19;11.83;;;4.43;;
5149;SDS011;2593;52.466;13.436;2022-07-23T05:17:45;8.83;;;4.20;;
5149;SDS011;2593;52.466;13.436;2022-07-23T05:20:10;12.63;;;5.20;;
5149;SDS011;2593;52.466;13.436;2022-07-23T05:22:36;7.73;;;4.47;;
5149;SDS011;2593;52.466;13.436;2022-07-23T05:25:02;10.23;;;4.50;;
5149;SDS011;2593;52.466;13.436;2022-07-23T05:27:29;10.60;;;4.93;;
5149;SDS011;2593;52.466;13.436;2022-07-23T05:29:55;19.40;;;5.03;;
5149;SDS011;2593;52.466;13.436;2022-07-23T05:32:20;9.97;;;4.70;;
5149;SDS011;2593;52.466;13.436;2022-07-23T05:34:46;13.47;;;4.37;;
5149;SDS011;2593;52.466;13.436;2022-07-23T05:37:11;6.17;;;3.90;;
5149;SDS011;2593;52.466;13.436;2022-07-23T05:39:37;6.10;;;4.60;;
5149;SDS011;2593;52.466;13.436;2022-07-23T05:42:03;9.50;;;5.33;;
5149;SDS011;2593;52.466;13.436;2022-07-23T05:44:28;13.40;;;4.80;;
5149;SDS011;2593;52.466;13.436;2022-07-23T05:46:54;7.10;;;4.20;;
5149;SDS011;2593;52.466;13.436;2022-07-23T05:49:19;7.93;;;3.90;;
5149;SDS011;2593;52.466;13.436;2022-07-23T05:51:45;7.07;;;3.77;;
5149;SDS011;2593;52.466;13.436;2022-07-23T05:54:10;8.40;;;4.20;;
5149;SDS011;2593;52.466;13.436;2022-07-23T05:56:36;7.90;;;5.17;;
5149;SDS011;2593;52.466;13.436;2022-07-23T05:59:02;5.83;;;5.07;;
5149;SDS011;2593;52.466;13.436;2022-07-23T06:01:27;7.87;;;4.57;;
5149;SDS011;2593;52.466;13.436;2022-07-23T06:03:53;11.20;;;5.30;;
5149;SDS011;2593;52.466;13.436;2022-07-23T06:06:18;6.87;;;5.00;;
5149;SDS011;2593;52.466;13.436;2022-07-23T06:08:44;7.60;;;4.83;;
5149;SDS011;2593;52.466;13.436;2022-07-23T06:11:10;9.07;;;4.30;;
5149;SDS011;2593;52.466;13.436;2022-07-23T06:13:36;19.23;;;4.93;;
5149;SDS011;2593;52.466;13.436;2022-07-23T06:16:01;34.27;;;15.23;;
5149;SDS011;2593;52.466;13.436;2022-07-23T06:18:27;11.40;;;5.90;;
5149;SDS011;2593;52.466;13.436;2022-07-23T06:20:53;10.40;;;5.07;;
5149;SDS011;2593;52.466;13.436;2022-07-23T06:23:19;12.83;;;5.33;;
5149;SDS011;2593;52.466;13.436;2022-07-23T06:25:45;11.40;;;5.43;;
5149;SDS011;2593;52.466;13.436;2022-07-23T06:28:10;7.83;;;5.27;;
5149;SDS011;2593;52.466;13.436;2022-07-23T06:30:37;8.80;;;5.50;;
5149;SDS011;2593;52.466;13.436;2022-07-23T06:33:03;9.00;;;5.10;;
5149;SDS011;2593;52.466;13.436;2022-07-23T06:35:29;10.40;;;5.50;;
5149;SDS011;2593;52.466;13.436;2022-07-23T06:37:54;14.57;;;6.17;;
5149;SDS011;2593;52.466;13.436;2022-07-23T06:40:20;10.57;;;5.33;;
5149;SDS011;2593;52.466;13.436;2022-07-23T06:42:46;10.40;;;4.50;;
5149;SDS011;2593;52.466;13.436;2022-07-23T06:45:11;14.10;;;6.60;;
5149;SDS011;2593;52.466;13.436;2022-07-23T06:47:37;14.40;;;5.63;;
5149;SDS011;2593;52.466;13.436;2022-07-23T06:50:03;8.83;;;6.07;;
5149;SDS011;2593;52.466;13.436;2022-07-23T06:52:29;14.60;;;7.67;;
5149;SDS011;2593;52.466;13.436;2022-07-23T06:54:55;12.10;;;6.57;;
5149;SDS011;2593;52.466;13.436;2022-07-23T06:57:20;12.40;;;5.90;;
5149;SDS011;2593;52.466;13.436;2022-07-23T06:59:46;11.23;;;6.60;;
5149;SDS011;2593;52.466;13.436;2022-07-23T07:02:12;11.57;;;6.63;;
5149;SDS011;2593;52.466;13.436;2022-07-23T07:04:37;15.37;;;6.23;;
5149;SDS011;2593;52.466;13.436;2022-07-23T07:07:03;22.43;;;6.97;;
5149;SDS011;2593;52.466;13.436;2022-07-23T07:09:28;16.70;;;5.90;;
5149;SDS011;2593;52.466;13.436;2022-07-23T07:11:54;11.10;;;7.37;;
5149;SDS011;2593;52.466;13.436;2022-07-23T07:14:20;24.47;;;14.40;;
5149;SDS011;2593;52.466;13.436;2022-07-23T07:16:45;24.97;;;11.10;;
5149;SDS011;2593;52.466;13.436;2022-07-23T07:19:11;11.20;;;7.77;;
5149;SDS011;2593;52.466;13.436;2022-07-23T07:21:37;9.43;;;6.10;;
5149;SDS011;2593;52.466;13.436;2022-07-23T07:24:02;19.77;;;7.60;;
5149;SDS011;2593;52.466;13.436;2022-07-23T07:26:28;10.50;;;7.80;;
5149;SDS011;2593;52.466;13.436;2022-07-23T07:28:55;11.53;;;5.80;;
5149;SDS011;2593;52.466;13.436;2022-07-23T07:31:21;18.77;;;6.30;;
5149;SDS011;2593;52.466;13.436;2022-07-23T07:33:47;12.93;;;6.50;;
5149;SDS011;2593;52.466;13.436;2022-07-23T07:36:13;14.93;;;6.80;;
5149;SDS011;2593;52.466;13.436;2022-07-23T07:38:38;13.13;;;5.40;;
5149;SDS011;2593;52.466;13.436;2022-07-23T07:41:04;9.90;;;5.50;;
5149;SDS011;2593;52.466;13.436;2022-07-23T07:43:30;11.97;;;5.90;;
5149;SDS011;2593;52.466;13.436;2022-07-23T07:45:55;20.57;;;6.23;;
5149;SDS011;2593;52.466;13.436;2022-07-23T07:48:21;12.03;;;5.23;;
5149;SDS011;2593;52.466;13.436;2022-07-23T07:50:46;7.97;;;4.97;;
5149;SDS011;2593;52.466;13.436;2022-07-23T07:53:12;11.47;;;5.60;;
5149;SDS011;2593;52.466;13.436;2022-07-23T07:55:38;10.37;;;5.77;;
5149;SDS011;2593;52.466;13.436;2022-07-23T07:58:03;12.80;;;6.00;;
5149;SDS011;2593;52.466;13.436;2022-07-23T08:00:29;13.73;;;6.20;;
5149;SDS011;2593;52.466;13.436;2022-07-23T08:02:55;9.30;;;5.80;;
5149;SDS011;2593;52.466;13.436;2022-07-23T08:05:25;12.50;;;6.50;;
5149;SDS011;2593;52.466;13.436;2022-07-23T08:07:51;13.17;;;7.20;;
5149;SDS011;2593;52.466;13.436;2022-07-23T08:10:17;15.77;;;6.47;;
5149;SDS011;2593;52.466;13.436;2022-07-23T08:12:48;11.40;;;6.40;;
5149;SDS011;2593;52.466;13.436;2022-07-23T08:15:16;9.40;;;5.87;;
5149;SDS011;2593;52.466;13.436;2022-07-23T08:17:44;10.53;;;7.07;;
5149;SDS011;2593;52.466;13.436;2022-07-23T08:20:11;19.03;;;7.60;;
5149;SDS011;2593;52.466;13.436;2022-07-23T08:22:41;14.13;;;7.50;;
5149;SDS011;2593;52.466;13.436;2022-07-23T08:25:07;13.53;;;7.27;;
5149;SDS011;2593;52.466;13.436;2022-07-23T08:27:33;11.30;;;6.03;;
5149;SDS011;2593;52.466;13.436;2022-07-23T08:29:58;10.80;;;7.60;;
5149;SDS011;2593;52.466;13.436;2022-07-23T08:32:24;11.73;;;6.20;;
5149;SDS011;2593;52.466;13.436;2022-07-23T08:34:49;12.40;;;6.87;;
5149;SDS011;2593;52.466;13.436;2022-07-23T08:37:15;12.10;;;5.70;;
5149;SDS011;2593;52.466;13.436;2022-07-23T08:39:40;12.17;;;5.30;;
5149;SDS011;2593;52.466;13.436;2022-07-23T08:42:07;7.17;;;5.33;;
5149;SDS011;2593;52.466;13.436;2022-07-23T08:44:33;6.40;;;4.93;;
5149;SDS011;2593;52.466;13.436;2022-07-23T08:47:00;9.43;;;4.50;;
5149;SDS011;2593;52.466;13.436;2022-07-23T08:49:27;9.07;;;4.43;;
5149;SDS011;2593;52.466;13.436;2022-07-23T08:51:54;10.73;;;4.50;;
5149;SDS011;2593;52.466;13.436;2022-07-23T08:54:20;14.60;;;4.40;;
5149;SDS011;2593;52.466;13.436;2022-07-23T08:56:47;6.90;;;3.57;;
5149;SDS011;2593;52.466;13.436;2022-07-23T08:59:13;5.00;;;2.60;;
5149;SDS011;2593;52.466;13.436;2022-07-23T09:01:39;6.20;;;2.47;;
5149;SDS011;2593;52.466;13.436;2022-07-23T09:04:05;8.88;;;3.00;;
5149;SDS011;2593;52.466;13.436;2022-07-23T09:06:31;2.85;;;2.30;;
5149;SDS011;2593;52.466;13.436;2022-07-23T09:08:56;8.02;;;2.47;;
5149;SDS011;2593;52.466;13.436;2022-07-23T09:11:22;4.22;;;2.33;;
5149;SDS011;2593;52.466;13.436;2022-07-23T09:13:48;7.50;;;2.10;;
5149;SDS011;2593;52.466;13.436;2022-07-23T09:16:18;6.03;;;2.78;;
5149;SDS011;2593;52.466;13.436;2022-07-23T09:18:50;4.80;;;2.17;;
5149;SDS011;2593;52.466;13.436;2022-07-23T09:23:46;6.32;;;2.30;;
5149;SDS011;2593;52.466;13.436;2022-07-23T09:31:57;9.68;;;2.13;;
5149;SDS011;2593;52.466;13.436;2022-07-23T09:34:29;8.77;;;2.45;;
5149;SDS011;2593;52.466;13.436;2022-07-23T09:37:08;5.55;;;2.88;;
5149;SDS011;2593;52.466;13.436;2022-07-23T09:39:35;3.95;;;2.38;;
5149;SDS011;2593;52.466;13.436;2022-07-23T09:42:15;5.05;;;2.42;;
5149;SDS011;2593;52.466;13.436;2022-07-23T09:44:41;8.30;;;2.38;;
5149;SDS011;2593;52.466;13.436;2022-07-23T09:47:09;6.30;;;2.60;;
5149;SDS011;2593;52.466;13.436;2022-07-23T09:49:34;3.90;;;2.70;;
5149;SDS011;2593;52.466;13.436;2022-07-23T09:52:00;6.75;;;3.47;;
5149;SDS011;2593;52.466;13.436;2022-07-23T09:54:37;8.23;;;3.60;;
5149;SDS011;2593;52.466;13.436;2022-07-23T09:59:40;5.07;;;3.92;;
5149;SDS011;2593;52.466;13.436;2022-07-23T10:02:07;4.33;;;3.63;;
5149;SDS011;2593;52.466;13.436;2022-07-23T10:04:34;7.03;;;3.67;;
5149;SDS011;2593;52.466;13.436;2022-07-23T10:07:01;4.77;;;2.60;;
5149;SDS011;2593;52.466;13.436;2022-07-23T10:11:56;6.53;;;4.00;;
5149;SDS011;2593;52.466;13.436;2022-07-23T10:14:29;6.23;;;3.40;;
5149;SDS011;2593;52.466;13.436;2022-07-23T10:16:57;11.07;;;3.37;;
5149;SDS011;2593;52.466;13.436;2022-07-23T10:19:22;5.70;;;3.70;;
5149;SDS011;2593;52.466;13.436;2022-07-23T10:21:49;10.43;;;3.50;;
5149;SDS011;2593;52.466;13.436;2022-07-23T10:24:28;8.70;;;3.90;;
5149;SDS011;2593;52.466;13.436;2022-07-23T10:27:16;5.43;;;2.80;;
5149;SDS011;2593;52.466;13.436;2022-07-23T10:30:02;3.07;;;2.77;;
5149;SDS011;2593;52.466;13.436;2022-07-23T10:35:36;5.80;;;3.03;;
5149;SDS011;2593;52.466;13.436;2022-07-23T10:40:37;10.27;;;2.50;;
5149;SDS011;2593;52.466;13.436;2022-07-23T10:43:19;11.00;;;4.10;;
5149;SDS011;2593;52.466;13.436;2022-07-23T10:45:45;5.13;;;2.63;;
5149;SDS011;2593;52.466;13.436;2022-07-23T10:50:38;7.73;;;2.90;;
5149;SDS011;2593;52.466;13.436;2022-07-23T10:53:09;6.13;;;3.57;;
5149;SDS011;2593;52.466;13.436;2022-07-23T10:58:02;3.77;;;3.03;;
5149;SDS011;2593;52.466;13.436;2022-07-23T11:00:33;3.10;;;2.33;;
5149;SDS011;2593;52.466;13.436;2022-07-23T11:03:00;4.70;;;2.90;;
5149;SDS011;2593;52.466;13.436;2022-07-23T11:05:41;9.77;;;4.03;;
5149;SDS011;2593;52.466;13.436;2022-07-23T11:37:07;10.73;;;3.67;;
5149;SDS011;2593;52.466;13.436;2022-07-23T11:39:37;6.77;;;3.30;;
5149;SDS011;2593;52.466;13.436;2022-07-23T11:42:04;6.33;;;3.60;;
5149;SDS011;2593;52.466;13.436;2022-07-23T11:44:32;7.10;;;3.87;;
5149;SDS011;2593;52.466;13.436;2022-07-23T11:47:05;8.17;;;4.27;;
5149;SDS011;2593;52.466;13.436;2022-07-23T11:49:32;6.77;;;3.33;;
5149;SDS011;2593;52.466;13.436;2022-07-23T11:52:16;7.07;;;3.90;;
5149;SDS011;2593;52.466;13.436;2022-07-23T11:54:49;4.40;;;3.07;;
5149;SDS011;2593;52.466;13.436;2022-07-23T11:57:20;5.70;;;3.47;;
5149;SDS011;2593;52.466;13.436;2022-07-23T11:59:50;3.93;;;3.53;;
5149;SDS011;2593;52.466;13.436;2022-07-23T12:02:19;8.50;;;3.10;;
5149;SDS011;2593;52.466;13.436;2022-07-23T12:04:49;7.57;;;3.70;;
5149;SDS011;2593;52.466;13.436;2022-07-23T12:09:48;6.40;;;3.47;;
5149;SDS011;2593;52.466;13.436;2022-07-23T12:12:13;9.17;;;3.93;;
5149;SDS011;2593;52.466;13.436;2022-07-23T12:14:52;6.30;;;3.73;;
5149;SDS011;2593;52.466;13.436;2022-07-23T12:17:20;3.87;;;3.17;;
5149;SDS011;2593;52.466;13.436;2022-07-23T12:19:46;6.70;;;3.30;;
5149;SDS011;2593;52.466;13.436;2022-07-23T12:22:12;4.23;;;3.77;;
5149;SDS011;2593;52.466;13.436;2022-07-23T12:27:29;10.77;;;4.67;;
5149;SDS011;2593;52.466;13.436;2022-07-23T12:29:55;6.60;;;4.10;;
5149;SDS011;2593;52.466;13.436;2022-07-23T12:35:03;4.53;;;2.53;;
5149;SDS011;2593;52.466;13.436;2022-07-23T12:37:30;8.67;;;3.53;;
5149;SDS011;2593;52.466;13.436;2022-07-23T12:39:58;9.80;;;3.77;;
5149;SDS011;2593;52.466;13.436;2022-07-23T12:42:42;3.80;;;3.40;;
5149;SDS011;2593;52.466;13.436;2022-07-23T12:45:09;6.00;;;2.90;;
5149;SDS011;2593;52.466;13.436;2022-07-23T12:47:55;5.70;;;4.03;;
5149;SDS011;2593;52.466;13.436;2022-07-23T12:50:34;11.80;;;3.50;;
5149;SDS011;2593;52.466;13.436;2022-07-23T12:53:12;7.60;;;4.30;;
5149;SDS011;2593;52.466;13.436;2022-07-23T12:55:40;6.27;;;3.20;;
5149;SDS011;2593;52.466;13.436;2022-07-23T12:58:08;6.60;;;3.57;;
5149;SDS011;2593;52.466;13.436;2022-07-23T13:03:22;5.10;;;3.30;;
5149;SDS011;2593;52.466;13.436;2022-07-23T13:05:56;6.00;;;3.97;;
5149;SDS011;2593;52.466;13.436;2022-07-23T13:08:23;8.37;;;4.07;;
5149;SDS011;2593;52.466;13.436;2022-07-23T13:10:50;4.90;;;3.40;;
5149;SDS011;2593;52.466;13.436;2022-07-23T13:13:17;9.10;;;4.07;;
5149;SDS011;2593;52.466;13.436;2022-07-23T13:15:45;6.83;;;4.77;;
5149;SDS011;2593;52.466;13.436;2022-07-23T13:18:11;9.80;;;5.47;;
5149;SDS011;2593;52.466;13.436;2022-07-23T13:20:37;4.53;;;3.73;;
5149;SDS011;2593;52.466;13.436;2022-07-23T13:23:04;8.53;;;4.10;;
5149;SDS011;2593;52.466;13.436;2022-07-23T13:25:31;24.03;;;4.07;;
5149;SDS011;2593;52.466;13.436;2022-07-23T13:27:57;15.00;;;4.20;;
5149;SDS011;2593;52.466;13.436;2022-07-23T13:30:22;4.57;;;3.57;;
5149;SDS011;2593;52.466;13.436;2022-07-23T13:32:48;6.33;;;3.80;;
5149;SDS011;2593;52.466;13.436;2022-07-23T13:35:14;5.23;;;3.57;;
5149;SDS011;2593;52.466;13.436;2022-07-23T13:37:40;4.47;;;3.33;;
5149;SDS011;2593;52.466;13.436;2022-07-23T13:40:06;4.57;;;3.40;;
5149;SDS011;2593;52.466;13.436;2022-07-23T13:42:32;6.90;;;3.97;;
5149;SDS011;2593;52.466;13.436;2022-07-23T13:44:57;6.37;;;4.20;;
5149;SDS011;2593;52.466;13.436;2022-07-23T13:47:23;7.97;;;3.90;;
5149;SDS011;2593;52.466;13.436;2022-07-23T13:49:48;7.17;;;4.00;;
5149;SDS011;2593;52.466;13.436;2022-07-23T13:52:14;6.20;;;4.70;;
5149;SDS011;2593;52.466;13.436;2022-07-23T13:54:40;6.40;;;4.67;;
5149;SDS011;2593;52.466;13.436;2022-07-23T13:57:05;6.73;;;4.07;;
5149;SDS011;2593;52.466;13.436;2022-07-23T13:59:32;10.63;;;4.27;;
5149;SDS011;2593;52.466;13.436;2022-07-23T14:01:58;5.67;;;3.23;;
5149;SDS011;2593;52.466;13.436;2022-07-23T14:04:23;4.47;;;3.87;;
5149;SDS011;2593;52.466;13.436;2022-07-23T14:06:49;8.17;;;4.70;;
5149;SDS011;2593;52.466;13.436;2022-07-23T14:09:15;10.10;;;4.80;;
5149;SDS011;2593;52.466;13.436;2022-07-23T14:11:40;5.90;;;3.67;;
5149;SDS011;2593;52.466;13.436;2022-07-23T14:14:06;6.67;;;3.80;;
5149;SDS011;2593;52.466;13.436;2022-07-23T14:16:31;5.57;;;3.10;;
5149;SDS011;2593;52.466;13.436;2022-07-23T14:18:57;3.70;;;3.40;;
5149;SDS011;2593;52.466;13.436;2022-07-23T14:21:23;9.63;;;4.43;;
5149;SDS011;2593;52.466;13.436;2022-07-23T14:23:48;7.73;;;3.97;;
5149;SDS011;2593;52.466;13.436;2022-07-23T14:26:14;4.03;;;2.97;;
5149;SDS011;2593;52.466;13.436;2022-07-23T14:28:39;4.77;;;4.17;;
5149;SDS011;2593;52.466;13.436;2022-07-23T14:31:05;4.33;;;3.83;;
5149;SDS011;2593;52.466;13.436;2022-07-23T14:33:30;4.70;;;3.00;;
5149;SDS011;2593;52.466;13.436;2022-07-23T14:35:56;4.47;;;3.20;;
5149;SDS011;2593;52.466;13.436;2022-07-23T14:38:23;7.50;;;3.90;;
5149;SDS011;2593;52.466;13.436;2022-07-23T14:40:49;6.17;;;4.93;;
5149;SDS011;2593;52.466;13.436;2022-07-23T14:43:15;3.77;;;2.47;;
5149;SDS011;2593;52.466;13.436;2022-07-23T14:45:40;2.70;;;2.50;;
5149;SDS011;2593;52.466;13.436;2022-07-23T14:48:06;3.43;;;2.87;;
5149;SDS011;2593;52.466;13.436;2022-07-23T14:50:32;4.40;;;3.23;;
5149;SDS011;2593;52.466;13.436;2022-07-23T14:52:57;6.27;;;2.93;;
5149;SDS011;2593;52.466;13.436;2022-07-23T14:55:23;3.77;;;2.50;;
5149;SDS011;2593;52.466;13.436;2022-07-23T14:57:48;4.50;;;2.60;;
5149;SDS011;2593;52.466;13.436;2022-07-23T15:00:14;6.37;;;2.83;;
5149;SDS011;2593;52.466;13.436;2022-07-23T15:02:40;8.23;;;4.07;;
5149;SDS011;2593;52.466;13.436;2022-07-23T15:05:05;9.90;;;4.30;;
5149;SDS011;2593;52.466;13.436;2022-07-23T15:07:31;8.87;;;5.93;;
5149;SDS011;2593;52.466;13.436;2022-07-23T15:09:57;9.50;;;4.33;;
5149;SDS011;2593;52.466;13.436;2022-07-23T15:12:23;10.97;;;7.13;;
5149;SDS011;2593;52.466;13.436;2022-07-23T15:14:49;18.90;;;11.40;;
5149;SDS011;2593;52.466;13.436;2022-07-23T15:17:14;15.83;;;9.00;;
5149;SDS011;2593;52.466;13.436;2022-07-23T15:19:40;4.73;;;2.43;;
5149;SDS011;2593;52.466;13.436;2022-07-23T15:22:06;6.63;;;3.27;;
5149;SDS011;2593;52.466;13.436;2022-07-23T15:24:32;3.57;;;2.53;;
5149;SDS011;2593;52.466;13.436;2022-07-23T15:26:58;12.80;;;2.50;;
5149;SDS011;2593;52.466;13.436;2022-07-23T15:29:24;5.60;;;2.23;;
5149;SDS011;2593;52.466;13.436;2022-07-23T15:31:50;2.63;;;2.00;;
5149;SDS011;2593;52.466;13.436;2022-07-23T15:34:15;7.40;;;3.73;;
5149;SDS011;2593;52.466;13.436;2022-07-23T15:36:41;1.93;;;1.77;;
5149;SDS011;2593;52.466;13.436;2022-07-23T15:39:07;2.60;;;1.97;;
5149;SDS011;2593;52.466;13.436;2022-07-23T15:41:32;4.43;;;2.90;;
5149;SDS011;2593;52.466;13.436;2022-07-23T15:43:58;9.60;;;5.30;;
5149;SDS011;2593;52.466;13.436;2022-07-23T15:46:24;5.43;;;4.10;;
5149;SDS011;2593;52.466;13.436;2022-07-23T15:48:50;6.87;;;3.67;;
5149;SDS011;2593;52.466;13.436;2022-07-23T15:51:16;3.17;;;1.80;;
5149;SDS011;2593;52.466;13.436;2022-07-23T15:53:42;3.77;;;2.40;;